Portada
METAR-TAF:

METAR-TAF

Aeroports :

Caracas, Veneçuela

Aeroport Internacional Maiquetía Simón Bolívar

latitud: 10-36N, longitud: 066-59W, altitud: 43 m

Observació

L'informe es va fer fa 45 minuts, a les 01:00 UTC
Vent 2 kt del Est
Temperatura 26°C
Humitat 84%
Pressió 1008 hPa
Visibilitat 10 km o més
Núvols disperses a una alçada de 1600 ft
Cel ennuvolat a una alçada de 10000 ft

METAR: SVMI 230100Z 09002KT 9999 SCT016 BKN100 26/23 Q1008

Hora: 21:45 (01:45 UTC)

Pronòstic

L'informe es va fer fa 3 hores i 45 minuts, a les 22:00 UTC
Pronòstic vàlid del 23 a les 00 UTC al 24 a les 00 UTC
Vent 3 kt del Nord-Est
Visibilitat 10 km o més
Cel ennuvolat a una alçada de 1600 ft
Evolucionant progressivament
l' 23 a les 01 UTC al 23 a les 05 UTC
Vent 12 kt del Nord-Est
Visibilitat: 9000 m
en les proximitats, plugim

TAF: SVMI 222200Z 2300/2400 05003KT 9999 BKN016 TX32/18Z TN21/09Z BECMG 2301/2305 05012KT 9000 VCDZ

Observacions i pronòstics meteorològics de més de 4000 aeroports (METAR i TAF).

Les estacions disponibles són els punts grocs i vermells al mapa.

Posi el ratolí al punt desitjat per veure el nom de l'estació.

Feu clic per veure les observacions i els pronòstics meteorològics.

Per canviar el mapa: feu clic els botons verds amb una creu de color negre per apropar; al botó verd amb un guió per allunyar la imatge; o en les fletxes verdes per a mapes adjacents.


METAR-TAF: